Villa Guillermina, Argentina
Current Conditions -  °F | °C
As of 8:00 AM on Thursday 23 Oct 2014 (Local Time) from SARC Reporting Station
Clear Clear  
Wind Chill: 75°   Ceiling: Unl
Heat Index: 75°   Visibility: 5mi
Dew Point: 64°   Wind: 5mph
Humidity: 69%   Direction: 110°ESE
Pressure: 29.94"   Gusts: NA
Location:  28.23°S, 59.47°W
Report Text: SARC 231100Z 11004KT 8000 NSC 24/18 Q1014
Loading
Personal Weather Stations






























Interactive Weather Map New forecast layout! Learn more

10-Day Weather Forecast

Advertisements
Track Severe Weather on mobile